TimeEST,TemperatureF,Dew PointF,Humidity,Sea Level PressureIn,VisibilityMPH,Wind Direction,Wind SpeedMPH,Gust SpeedMPH,PrecipitationIn,Events,Conditions,WindDirDegrees,DateUTC
12:51 AM,44.1,30.0,58,30.01,10.0,NNW,4.6,-,N/A,,Overcast,340,2013-12-02 05:51:00
1:51 AM,44.1,30.9,60,30.01,10.0,NW,4.6,-,N/A,,Overcast,310,2013-12-02 06:51:00
2:51 AM,43.0,30.9,62,29.99,10.0,Calm,Calm,-,N/A,,Mostly Cloudy,0,2013-12-02 07:51:00
3:51 AM,43.0,28.9,58,29.98,10.0,NNW,5.8,-,N/A,,Mostly Cloudy,330,2013-12-02 08:51:00
4:51 AM,42.1,28.9,60,29.97,10.0,Calm,Calm,-,N/A,,Mostly Cloudy,0,2013-12-02 09:51:00
5:51 AM,42.1,32.0,67,29.98,10.0,East,3.5,-,N/A,,Overcast,80,2013-12-02 10:51:00
6:51 AM,42.1,33.1,70,29.98,10.0,ENE,4.6,-,N/A,,Overcast,60,2013-12-02 11:51:00
7:51 AM,42.1,35.1,76,29.98,9.0,NE,5.8,-,N/A,,Overcast,50,2013-12-02 12:51:00
8:51 AM,42.1,37.0,82,29.99,7.0,NE,5.8,-,N/A,,Overcast,50,2013-12-02 13:51:00
9:51 AM,43.0,36.0,76,29.98,7.0,NE,6.9,-,N/A,,Overcast,50,2013-12-02 14:51:00
10:51 AM,43.0,37.0,80,29.97,7.0,NE,6.9,-,N/A,,Overcast,40,2013-12-02 15:51:00
11:51 AM,44.1,37.0,76,29.95,7.0,ENE,6.9,-,N/A,,Overcast,60,2013-12-02 16:51:00
12:51 PM,44.1,37.9,79,29.93,7.0,NE,8.1,-,N/A,,Mostly Cloudy,50,2013-12-02 17:51:00
1:51 PM,45.0,37.9,76,29.90,7.0,NE,9.2,-,N/A,,Scattered Clouds,50,2013-12-02 18:51:00
2:51 PM,45.0,37.9,76,29.91,7.0,ENE,6.9,-,N/A,,Overcast,60,2013-12-02 19:51:00
3:51 PM,44.1,37.9,79,29.92,7.0,NE,6.9,-,N/A,,Overcast,40,2013-12-02 20:51:00
4:51 PM,44.1,37.9,79,29.91,8.0,ENE,8.1,-,N/A,,Mostly Cloudy,60,2013-12-02 21:51:00
5:51 PM,43.0,37.9,82,29.91,8.0,NE,6.9,-,N/A,,Clear,50,2013-12-02 22:51:00
6:51 PM,43.0,37.9,82,29.91,7.0,NE,6.9,-,N/A,,Scattered Clouds,50,2013-12-02 23:51:00
7:51 PM,43.0,37.0,80,29.92,8.0,East,6.9,-,N/A,,Scattered Clouds,80,2013-12-03 00:51:00
8:51 PM,43.0,36.0,76,29.93,8.0,ENE,5.8,-,N/A,,Scattered Clouds,60,2013-12-03 01:51:00
9:51 PM,41.0,36.0,82,29.92,7.0,ENE,4.6,-,N/A,,Scattered Clouds,60,2013-12-03 02:51:00
10:51 PM,41.0,36.0,82,29.92,7.0,NE,4.6,-,N/A,,Mostly Cloudy,40,2013-12-03 03:51:00
11:51 PM,41.0,36.0,82,29.91,7.0,NNE,5.8,-,N/A,,Overcast,20,2013-12-03 04:51:00